createdAt,value
2022-10-08T00:01:09.616Z,14.56
2022-10-08T00:03:38.831Z,14.54
2022-10-08T00:06:08.924Z,14.32
2022-10-08T00:08:38.543Z,14.48
2022-10-08T00:11:08.189Z,14.45
2022-10-08T00:13:41.617Z,14.16
2022-10-08T00:16:10.074Z,14.12
2022-10-08T00:18:37.660Z,13.72
2022-10-08T00:21:07.073Z,13.61
2022-10-08T00:23:35.207Z,13.55
2022-10-08T00:26:07.092Z,13.68
2022-10-08T00:28:35.663Z,13.52
2022-10-08T00:31:08.225Z,13.63
2022-10-08T00:33:37.051Z,13.65
2022-10-08T00:36:05.847Z,13.79
2022-10-08T00:38:33.620Z,13.50
2022-10-08T00:41:01.593Z,13.47
2022-10-08T00:43:43.845Z,13.62
2022-10-08T00:46:25.968Z,13.67
2022-10-08T00:49:01.728Z,13.70
2022-10-08T00:51:30.076Z,13.60
2022-10-08T00:53:57.647Z,13.59
2022-10-08T00:56:26.178Z,13.55
2022-10-08T00:58:54.214Z,13.52
2022-10-08T01:01:23.153Z,13.79
2022-10-08T01:03:50.722Z,14.00
2022-10-08T01:06:27.468Z,14.17
2022-10-08T01:09:01.022Z,14.29
2022-10-08T01:11:42.767Z,14.41
2022-10-08T01:14:22.890Z,14.43
2022-10-08T01:16:58.220Z,14.46
2022-10-08T01:19:57.622Z,14.55
2022-10-08T01:22:38.810Z,14.48
2022-10-08T01:25:32.977Z,14.41
2022-10-08T01:28:06.497Z,14.37
2022-10-08T01:30:38.223Z,14.32
2022-10-08T01:33:12.280Z,14.22
2022-10-08T01:35:44.688Z,14.28
2022-10-08T01:38:16.944Z,13.99
2022-10-08T01:40:47.729Z,13.68
2022-10-08T01:43:21.696Z,13.57
2022-10-08T01:45:57.324Z,13.93
2022-10-08T01:48:29.649Z,14.12
2022-10-08T01:51:03.353Z,14.29
2022-10-08T01:53:35.607Z,14.23
2022-10-08T01:56:06.221Z,14.01
2022-10-08T01:58:40.051Z,14.11
2022-10-08T02:01:12.882Z,14.02
2022-10-08T02:04:01.031Z,14.23
2022-10-08T02:06:31.293Z,14.12
2022-10-08T02:08:58.800Z,13.85
2022-10-08T02:11:26.384Z,13.57
2022-10-08T02:13:55.321Z,13.46
2022-10-08T02:16:29.616Z,13.08
2022-10-08T02:19:08.057Z,12.38
2022-10-08T02:21:39.187Z,12.24
2022-10-08T02:24:13.294Z,12.42
2022-10-08T02:26:45.441Z,12.67
2022-10-08T02:29:20.410Z,12.88
2022-10-08T02:31:50.791Z,12.90
2022-10-08T02:34:23.450Z,12.72
2022-10-08T02:36:57.694Z,12.73
2022-10-08T02:39:28.335Z,12.71
2022-10-08T02:42:00.439Z,12.98
2022-10-08T02:44:34.005Z,13.10
2022-10-08T02:47:07.001Z,12.84
2022-10-08T02:49:38.683Z,12.94
2022-10-08T02:52:09.047Z,12.80
2022-10-08T02:54:39.744Z,12.92
2022-10-08T02:57:15.732Z,13.49
2022-10-08T02:59:45.599Z,13.76
2022-10-08T03:02:21.040Z,13.83
2022-10-08T03:04:52.397Z,13.74
2022-10-08T03:07:22.915Z,13.63
2022-10-08T03:09:53.035Z,13.41
2022-10-08T03:12:20.956Z,13.00
2022-10-08T03:14:52.209Z,13.35
2022-10-08T03:17:23.652Z,13.08
2022-10-08T03:19:51.769Z,13.21
2022-10-08T03:22:19.408Z,12.84
2022-10-08T03:24:46.913Z,12.82
2022-10-08T03:27:14.594Z,13.09
2022-10-08T03:29:42.130Z,12.84
2022-10-08T03:32:10.997Z,13.04
2022-10-08T03:34:38.521Z,13.00
2022-10-08T03:37:06.068Z,13.00
2022-10-08T03:39:33.585Z,13.39
2022-10-08T03:42:01.087Z,13.20
2022-10-08T03:44:28.616Z,13.17
2022-10-08T03:46:56.127Z,13.12
2022-10-08T03:49:25.330Z,13.25
2022-10-08T03:51:52.855Z,13.16
2022-10-08T03:54:20.392Z,13.08
2022-10-08T03:56:48.108Z,13.23
2022-10-08T03:59:15.786Z,13.23
2022-10-08T04:01:43.353Z,13.05
2022-10-08T04:04:10.996Z,13.14
2022-10-08T04:06:39.864Z,13.13
2022-10-08T04:09:07.378Z,13.11
2022-10-08T04:11:34.913Z,13.54
2022-10-08T04:14:02.495Z,13.39
2022-10-08T04:16:30.008Z,13.78
2022-10-08T04:18:57.552Z,13.74
2022-10-08T04:21:25.089Z,13.86
2022-10-08T04:23:53.920Z,13.69
2022-10-08T04:26:21.410Z,13.63
2022-10-08T04:28:49.047Z,13.51
2022-10-08T04:31:18.869Z,13.65
2022-10-08T04:33:47.650Z,13.57
2022-10-08T04:36:16.740Z,13.28
2022-10-08T04:38:44.847Z,13.47
2022-10-08T04:41:15.080Z,13.28
2022-10-08T04:43:44.019Z,13.76
2022-10-08T04:46:13.226Z,13.60
2022-10-08T04:48:41.603Z,13.83
2022-10-08T04:51:10.822Z,13.70
2022-10-08T04:53:39.324Z,13.63
2022-10-08T04:56:14.252Z,13.74
2022-10-08T04:58:42.434Z,13.86
2022-10-08T05:01:12.831Z,13.87
2022-10-08T05:03:41.809Z,13.77
2022-10-08T05:06:10.149Z,13.51
2022-10-08T05:08:38.901Z,13.67
2022-10-08T05:11:06.523Z,13.95
2022-10-08T05:13:36.075Z,13.92
2022-10-08T05:16:05.744Z,14.15
2022-10-08T05:18:33.691Z,14.09
2022-10-08T05:21:04.152Z,14.09
2022-10-08T05:23:33.063Z,14.14
2022-10-08T05:26:02.234Z,14.46
2022-10-08T05:28:30.879Z,14.56
2022-10-08T05:31:02.977Z,14.34
2022-10-08T05:33:30.527Z,14.49
2022-10-08T05:35:58.047Z,14.47
2022-10-08T05:38:25.577Z,14.33
2022-10-08T05:40:53.075Z,14.03
2022-10-08T05:43:20.581Z,14.03
2022-10-08T05:45:52.063Z,13.87
2022-10-08T05:48:20.911Z,14.09
2022-10-08T05:50:48.423Z,14.03
2022-10-08T05:53:15.933Z,14.24
2022-10-08T05:55:43.447Z,14.27
2022-10-08T05:58:10.930Z,14.70
2022-10-08T06:00:38.503Z,14.60
2022-10-08T06:03:06.118Z,14.43
2022-10-08T06:05:35.066Z,14.83
2022-10-08T06:08:02.572Z,15.24
2022-10-08T06:10:31.934Z,15.41
2022-10-08T06:12:59.436Z,15.30
2022-10-08T06:15:26.948Z,15.31
2022-10-08T06:17:54.449Z,15.17
2022-10-08T06:20:21.950Z,14.95
2022-10-08T06:22:50.955Z,14.89
2022-10-08T06:25:18.536Z,14.72
2022-10-08T06:27:46.031Z,14.68
2022-10-08T06:30:14.087Z,14.92
2022-10-08T06:32:41.609Z,15.21
2022-10-08T06:35:09.446Z,15.29
2022-10-08T06:37:36.943Z,15.63
2022-10-08T06:40:06.247Z,15.62
2022-10-08T06:42:33.769Z,15.44
2022-10-08T06:45:02.350Z,15.36
2022-10-08T06:47:30.284Z,15.38
2022-10-08T06:49:57.805Z,15.18
2022-10-08T06:52:25.350Z,15.30
2022-10-08T06:54:52.849Z,15.51
2022-10-08T06:57:21.710Z,15.62
2022-10-08T06:59:49.383Z,15.82
2022-10-08T07:02:16.895Z,15.61
2022-10-08T07:04:44.512Z,15.76
2022-10-08T07:07:12.009Z,15.99
2022-10-08T07:09:39.540Z,16.20
2022-10-08T07:12:07.053Z,16.24
2022-10-08T07:14:35.916Z,16.63
2022-10-08T07:17:03.415Z,16.74
2022-10-08T07:19:30.928Z,16.88
2022-10-08T07:22:01.342Z,16.99
2022-10-08T07:24:29.201Z,17.11
2022-10-08T07:26:56.865Z,17.03
2022-10-08T07:29:26.190Z,16.63
2022-10-08T07:31:55.139Z,16.68
2022-10-08T07:34:22.785Z,16.94
2022-10-08T07:36:50.280Z,16.98
2022-10-08T07:39:19.787Z,17.10
2022-10-08T07:41:48.311Z,17.46
2022-10-08T07:44:16.676Z,17.17
2022-10-08T07:46:46.115Z,17.12
2022-10-08T07:49:16.096Z,17.51
2022-10-08T07:51:44.260Z,17.47
2022-10-08T07:54:15.557Z,17.23
2022-10-08T07:56:43.229Z,17.41
2022-10-08T07:59:14.833Z,17.43
2022-10-08T08:01:43.434Z,17.43
2022-10-08T08:04:12.223Z,17.50
2022-10-08T08:06:43.276Z,17.84
2022-10-08T08:09:11.976Z,18.23
2022-10-08T08:11:40.226Z,18.22
2022-10-08T08:14:08.108Z,18.62
2022-10-08T08:16:35.982Z,18.36
2022-10-08T08:19:04.217Z,18.12
2022-10-08T08:21:33.308Z,18.02
2022-10-08T08:24:05.890Z,17.94
2022-10-08T08:26:36.780Z,17.76
2022-10-08T08:29:06.973Z,17.71
2022-10-08T08:31:36.084Z,17.92
2022-10-08T08:34:05.563Z,17.67
2022-10-08T08:36:35.794Z,17.47
2022-10-08T08:39:05.848Z,17.44
2022-10-08T08:41:52.957Z,17.63
2022-10-08T08:44:23.264Z,17.81
2022-10-08T08:46:57.418Z,18.32
2022-10-08T08:49:29.344Z,18.68
2022-10-08T08:51:59.233Z,18.71
2022-10-08T08:54:28.382Z,18.84
2022-10-08T08:56:56.320Z,18.76
2022-10-08T08:59:32.499Z,19.01
2022-10-08T09:02:04.661Z,19.11
2022-10-08T09:04:45.053Z,18.74
2022-10-08T09:07:18.019Z,18.52
2022-10-08T09:09:50.230Z,18.69
2022-10-08T09:12:21.221Z,18.59
2022-10-08T09:14:52.977Z,18.51
2022-10-08T09:17:23.361Z,18.81
2022-10-08T09:19:51.398Z,19.12
2022-10-08T09:22:22.933Z,19.70
2022-10-08T09:24:55.709Z,20.08
2022-10-08T09:27:23.310Z,20.96
2022-10-08T09:29:50.843Z,21.20
2022-10-08T09:32:21.120Z,21.18
2022-10-08T09:34:49.213Z,20.67
2022-10-08T09:37:22.153Z,20.51
2022-10-08T09:40:21.214Z,20.04
2022-10-08T09:43:11.859Z,19.61
2022-10-08T09:45:43.799Z,18.79
2022-10-08T09:48:22.811Z,19.07
2022-10-08T09:50:54.978Z,19.22
2022-10-08T09:53:25.690Z,19.42
2022-10-08T09:55:58.232Z,18.58
2022-10-08T09:58:25.960Z,18.27
2022-10-08T10:01:03.741Z,18.12
2022-10-08T10:03:32.623Z,18.59
2022-10-08T10:06:01.491Z,18.87
2022-10-08T10:08:45.849Z,18.51
2022-10-08T10:11:21.387Z,18.72
2022-10-08T10:13:50.907Z,19.32
2022-10-08T10:16:23.572Z,18.89
2022-10-08T10:18:58.088Z,18.43
2022-10-08T10:21:35.440Z,17.57
2022-10-08T10:24:23.749Z,18.54
2022-10-08T10:26:56.834Z,19.11
2022-10-08T10:29:30.183Z,18.63
2022-10-08T10:32:03.623Z,19.91
2022-10-08T10:34:37.043Z,20.67
2022-10-08T10:37:11.439Z,19.69
2022-10-08T10:39:44.434Z,18.59
2022-10-08T10:42:18.467Z,18.09
2022-10-08T10:44:53.291Z,17.91
2022-10-08T10:47:27.113Z,18.23
2022-10-08T10:49:57.917Z,18.69
2022-10-08T10:52:37.334Z,18.67
2022-10-08T10:55:32.571Z,18.69
2022-10-08T10:58:18.608Z,19.44
2022-10-08T11:00:56.227Z,19.30
2022-10-08T11:03:31.944Z,18.53
2022-10-08T11:06:27.925Z,19.30
2022-10-08T11:09:00.542Z,18.66
2022-10-08T11:11:37.270Z,18.67
2022-10-08T11:14:23.271Z,18.34
2022-10-08T11:17:03.759Z,18.00
2022-10-08T11:19:40.099Z,18.14
2022-10-08T11:22:18.211Z,18.07
2022-10-08T11:25:01.944Z,18.28
2022-10-08T11:27:40.092Z,17.59
2022-10-08T11:30:14.150Z,18.66
2022-10-08T11:32:43.752Z,19.21
2022-10-08T11:35:24.644Z,19.35
2022-10-08T11:38:02.691Z,18.74
2022-10-08T11:40:35.921Z,18.61
2022-10-08T11:43:08.327Z,18.98
2022-10-08T11:45:39.879Z,18.44
2022-10-08T11:48:32.757Z,17.94
2022-10-08T11:51:31.172Z,18.16
2022-10-08T11:54:05.808Z,18.10
2022-10-08T11:56:35.841Z,18.19
2022-10-08T11:59:11.057Z,17.79
2022-10-08T12:01:53.267Z,17.66
2022-10-08T12:04:23.785Z,17.48
2022-10-08T12:07:03.844Z,17.72
2022-10-08T12:10:22.581Z,17.50
2022-10-08T12:13:28.683Z,17.52
2022-10-08T12:16:06.686Z,17.65
2022-10-08T12:18:54.103Z,17.49
2022-10-08T12:21:55.160Z,18.26
2022-10-08T12:24:58.249Z,18.82
2022-10-08T12:27:39.871Z,18.58
2022-10-08T12:30:10.542Z,18.19
2022-10-08T12:32:57.892Z,18.03
2022-10-08T12:35:32.790Z,17.61
2022-10-08T12:38:22.746Z,17.46
2022-10-08T12:41:00.196Z,17.77
2022-10-08T12:43:37.856Z,17.34
2022-10-08T12:46:18.482Z,17.46
2022-10-08T12:48:52.088Z,17.97
2022-10-08T12:51:27.352Z,18.04
2022-10-08T12:53:55.056Z,17.82
2022-10-08T12:56:26.195Z,17.65
2022-10-08T12:58:56.807Z,18.49
2022-10-08T13:01:26.071Z,18.23
2022-10-08T13:04:10.693Z,18.11
2022-10-08T13:06:39.610Z,18.06
2022-10-08T13:09:26.619Z,17.94
2022-10-08T13:11:58.297Z,18.04
2022-10-08T13:14:30.753Z,17.90
2022-10-08T13:16:58.795Z,18.30
2022-10-08T13:19:31.892Z,18.18
2022-10-08T13:22:02.933Z,17.28
2022-10-08T13:24:33.995Z,17.09
2022-10-08T13:27:01.632Z,16.69
2022-10-08T13:29:32.473Z,16.65
2022-10-08T13:32:02.126Z,16.54
2022-10-08T13:34:32.059Z,16.78
2022-10-08T13:37:03.588Z,16.89
2022-10-08T13:39:34.590Z,17.30
2022-10-08T13:42:04.867Z,17.52
2022-10-08T13:44:34.488Z,17.62
2022-10-08T13:47:03.858Z,18.31
2022-10-08T13:49:33.764Z,19.24
2022-10-08T13:52:02.953Z,18.53
2022-10-08T13:54:33.265Z,18.34
2022-10-08T13:57:01.215Z,18.04
2022-10-08T13:59:30.900Z,18.01
2022-10-08T14:01:58.716Z,17.39
2022-10-08T14:04:26.924Z,17.21
2022-10-08T14:06:57.264Z,16.82
2022-10-08T14:09:28.927Z,16.98
2022-10-08T14:11:59.265Z,17.06
2022-10-08T14:14:28.435Z,17.39
2022-10-08T14:16:55.963Z,17.57
2022-10-08T14:19:23.500Z,17.39
2022-10-08T14:21:55.069Z,17.82
2022-10-08T14:24:22.580Z,17.75
2022-10-08T14:26:51.427Z,17.94
2022-10-08T14:29:19.061Z,17.58
2022-10-08T14:31:46.641Z,17.46
2022-10-08T14:34:14.238Z,16.97
2022-10-08T14:36:42.790Z,16.97
2022-10-08T14:39:11.011Z,16.86
2022-10-08T14:41:40.683Z,16.59
2022-10-08T14:44:09.589Z,16.45
2022-10-08T14:46:37.103Z,16.60
2022-10-08T14:49:05.284Z,16.54
2022-10-08T14:51:38.402Z,16.65
2022-10-08T14:54:06.980Z,16.61
2022-10-08T14:56:34.662Z,16.41
2022-10-08T14:59:02.204Z,16.33
2022-10-08T15:01:31.410Z,15.74
2022-10-08T15:03:59.038Z,15.74
2022-10-08T15:06:26.583Z,15.69
2022-10-08T15:08:54.183Z,15.77
2022-10-08T15:11:21.717Z,15.74
2022-10-08T15:13:49.248Z,15.61
2022-10-08T15:16:16.854Z,15.71
2022-10-08T15:18:45.779Z,15.46
2022-10-08T15:21:13.277Z,15.53
2022-10-08T15:23:40.763Z,15.46
2022-10-08T15:26:14.614Z,15.56
2022-10-08T15:28:43.130Z,15.65
2022-10-08T15:31:13.752Z,15.77
2022-10-08T15:33:42.611Z,15.94
2022-10-08T15:36:20.173Z,15.85
2022-10-08T15:38:49.102Z,16.00
2022-10-08T15:41:17.423Z,15.87
2022-10-08T15:43:45.503Z,15.59
2022-10-08T15:46:15.743Z,15.64
2022-10-08T15:48:43.455Z,15.52
2022-10-08T15:51:11.035Z,15.39
2022-10-08T15:53:40.141Z,15.58
2022-10-08T15:56:07.684Z,15.52
2022-10-08T15:58:49.944Z,15.51
2022-10-08T16:01:19.903Z,15.64
2022-10-08T16:03:49.129Z,16.15
2022-10-08T16:06:18.613Z,15.76
2022-10-08T16:08:47.780Z,16.34
2022-10-08T16:11:18.393Z,16.93
2022-10-08T16:13:50.177Z,17.04
2022-10-08T16:16:17.896Z,17.22
2022-10-08T16:18:46.919Z,17.32
2022-10-08T16:21:14.957Z,17.27
2022-10-08T16:23:42.504Z,17.35
2022-10-08T16:26:13.757Z,16.80
2022-10-08T16:28:42.056Z,15.97
2022-10-08T16:31:11.321Z,16.23
2022-10-08T16:33:39.259Z,16.33
2022-10-08T16:36:08.894Z,15.95
2022-10-08T16:38:37.871Z,15.22
2022-10-08T16:41:15.136Z,15.64
2022-10-08T16:43:46.041Z,15.86
2022-10-08T16:46:15.413Z,15.35
2022-10-08T16:48:43.608Z,15.16
2022-10-08T16:51:12.043Z,15.13
2022-10-08T16:53:40.303Z,14.92
2022-10-08T16:56:07.857Z,15.07
2022-10-08T16:58:36.708Z,14.86
2022-10-08T17:01:08.715Z,14.32
2022-10-08T17:03:36.664Z,14.56
2022-10-08T17:06:04.903Z,14.64
2022-10-08T17:08:32.425Z,14.42
2022-10-08T17:11:04.676Z,14.44
2022-10-08T17:13:32.394Z,14.33
2022-10-08T17:16:02.831Z,14.30
2022-10-08T17:18:32.225Z,14.17
2022-10-08T17:21:03.105Z,14.03
2022-10-08T17:23:35.975Z,13.95
2022-10-08T17:26:06.336Z,13.79
2022-10-08T17:28:36.327Z,13.67
2022-10-08T17:31:07.229Z,13.50
2022-10-08T17:33:36.297Z,13.45
2022-10-08T17:36:06.736Z,12.98
2022-10-08T17:38:35.054Z,13.00
2022-10-08T17:41:09.634Z,13.06
2022-10-08T17:43:37.133Z,13.09
2022-10-08T17:46:10.403Z,13.09
2022-10-08T17:48:38.259Z,13.03
2022-10-08T17:51:06.995Z,12.91
2022-10-08T17:53:34.956Z,12.83
2022-10-08T17:56:04.801Z,12.50
2022-10-08T17:58:32.403Z,11.90
2022-10-08T18:01:08.807Z,11.94
2022-10-08T18:03:38.829Z,11.67
2022-10-08T18:06:07.341Z,11.42
2022-10-08T18:08:35.044Z,11.19
2022-10-08T18:11:03.503Z,10.91
2022-10-08T18:13:31.377Z,11.00
2022-10-08T18:16:03.456Z,10.95
2022-10-08T18:18:31.107Z,11.03
2022-10-08T18:21:01.608Z,11.02
2022-10-08T18:23:30.172Z,11.30
2022-10-08T18:26:07.930Z,11.60
2022-10-08T18:28:36.073Z,12.49
2022-10-08T18:31:05.091Z,12.66
2022-10-08T18:33:32.984Z,12.22
2022-10-08T18:36:09.880Z,12.34
2022-10-08T18:38:37.428Z,12.03
2022-10-08T18:41:15.321Z,12.11
2022-10-08T18:43:43.208Z,11.49
2022-10-08T18:46:11.167Z,11.22
2022-10-08T18:48:39.100Z,11.90
2022-10-08T18:51:10.064Z,12.12
2022-10-08T18:53:39.379Z,12.62
2022-10-08T18:56:10.283Z,12.61
2022-10-08T18:58:38.066Z,12.75
2022-10-08T19:01:07.005Z,12.86
2022-10-08T19:03:34.591Z,12.95
2022-10-08T19:06:02.108Z,12.76
2022-10-08T19:08:31.168Z,12.74
2022-10-08T19:10:58.682Z,12.61
2022-10-08T19:13:26.184Z,12.62
2022-10-08T19:15:53.748Z,12.44
2022-10-08T19:18:21.281Z,12.65
2022-10-08T19:20:48.787Z,12.63
2022-10-08T19:23:16.304Z,12.48
2022-10-08T19:25:45.166Z,12.56
2022-10-08T19:28:12.690Z,12.37
2022-10-08T19:30:40.201Z,12.41
2022-10-08T19:33:07.699Z,12.30
2022-10-08T19:35:35.245Z,12.29
2022-10-08T19:38:02.788Z,12.02
2022-10-08T19:40:30.309Z,12.05
2022-10-08T19:42:59.158Z,11.83
2022-10-08T19:45:26.686Z,11.60
2022-10-08T19:47:54.176Z,11.46
2022-10-08T19:50:21.718Z,11.02
2022-10-08T19:52:51.867Z,10.65
2022-10-08T19:55:19.639Z,10.42
2022-10-08T19:57:47.149Z,10.16
2022-10-08T20:00:16.780Z,9.96
2022-10-08T20:02:44.311Z,9.94
2022-10-08T20:05:11.825Z,10.05
2022-10-08T20:07:39.836Z,10.25
2022-10-08T20:10:08.265Z,10.41
2022-10-08T20:12:35.768Z,10.12
2022-10-08T20:15:03.307Z,9.75
2022-10-08T20:17:32.183Z,9.54
2022-10-08T20:20:20.571Z,9.57
2022-10-08T20:22:47.538Z,9.70
2022-10-08T20:25:18.997Z,9.82
2022-10-08T20:27:46.506Z,10.13
2022-10-08T20:30:14.972Z,10.63
2022-10-08T20:32:43.827Z,11.06
2022-10-08T20:35:11.319Z,11.52
2022-10-08T20:37:38.852Z,11.77
2022-10-08T20:40:07.299Z,11.84
2022-10-08T20:42:34.816Z,11.76
2022-10-08T20:45:02.444Z,11.70
2022-10-08T20:47:29.953Z,11.54
2022-10-08T20:49:58.806Z,11.24
2022-10-08T20:52:26.329Z,11.36
2022-10-08T20:54:53.841Z,11.35
2022-10-08T20:57:21.346Z,11.18
2022-10-08T20:59:48.880Z,11.12
2022-10-08T21:02:19.604Z,11.03
2022-10-08T21:04:47.551Z,11.19
2022-10-08T21:07:16.388Z,10.84
2022-10-08T21:09:43.944Z,10.33
2022-10-08T21:12:11.453Z,10.38
2022-10-08T21:14:38.989Z,10.63
2022-10-08T21:17:06.499Z,10.77
2022-10-08T21:19:34.002Z,10.82
2022-10-08T21:22:01.532Z,10.79
2022-10-08T21:24:30.441Z,10.80
2022-10-08T21:26:58.053Z,10.75
2022-10-08T21:29:25.543Z,10.73
2022-10-08T21:31:53.121Z,10.69
2022-10-08T21:34:20.933Z,10.74
2022-10-08T21:36:49.972Z,10.78
2022-10-08T21:39:18.253Z,10.63
2022-10-08T21:41:47.389Z,10.61
2022-10-08T21:44:15.754Z,10.59
2022-10-08T21:46:43.327Z,10.50
2022-10-08T21:49:13.912Z,10.41
2022-10-08T21:51:41.628Z,10.38
2022-10-08T21:54:11.102Z,10.40
2022-10-08T21:56:41.193Z,10.21
2022-10-08T21:59:13.367Z,10.22
2022-10-08T22:01:42.687Z,10.17
2022-10-08T22:04:12.174Z,10.21
2022-10-08T22:06:41.760Z,10.24
2022-10-08T22:09:11.597Z,10.12
2022-10-08T22:11:39.469Z,10.15
2022-10-08T22:14:07.261Z,10.10
2022-10-08T22:16:36.306Z,9.94
2022-10-08T22:19:04.406Z,9.94
2022-10-08T22:21:32.355Z,9.86
2022-10-08T22:23:59.984Z,9.69
2022-10-08T22:26:30.118Z,9.59
2022-10-08T22:28:58.564Z,9.50
2022-10-08T22:31:27.021Z,9.41
2022-10-08T22:33:56.458Z,9.51
2022-10-08T22:36:26.266Z,9.57
2022-10-08T22:38:54.441Z,9.54
2022-10-08T22:41:23.571Z,9.50
2022-10-08T22:43:51.617Z,9.48
2022-10-08T22:46:21.905Z,9.41
2022-10-08T22:48:49.783Z,9.37
2022-10-08T22:51:20.148Z,9.25
2022-10-08T22:53:47.968Z,9.20
2022-10-08T22:56:18.601Z,9.13
2022-10-08T22:58:46.660Z,9.11
2022-10-08T23:01:15.672Z,9.10
2022-10-08T23:03:43.494Z,9.14
2022-10-08T23:06:15.474Z,9.11
2022-10-08T23:08:45.964Z,9.01
2022-10-08T23:11:14.112Z,8.97
2022-10-08T23:13:45.386Z,8.97
2022-10-08T23:16:14.970Z,8.96
2022-10-08T23:18:45.744Z,8.93
2022-10-08T23:21:15.793Z,8.80
2022-10-08T23:23:45.883Z,8.79
2022-10-08T23:26:14.434Z,8.76
2022-10-08T23:28:42.789Z,8.82
2022-10-08T23:31:12.613Z,8.89
2022-10-08T23:33:42.085Z,8.84
2022-10-08T23:36:10.656Z,8.86
2022-10-08T23:38:38.474Z,8.80
2022-10-08T23:41:09.241Z,8.84
2022-10-08T23:43:38.267Z,8.82
2022-10-08T23:46:07.628Z,8.82
2022-10-08T23:48:35.619Z,8.75
2022-10-08T23:51:04.292Z,8.68
2022-10-08T23:53:32.451Z,8.63
2022-10-08T23:56:00.545Z,8.63
2022-10-08T23:58:29.438Z,8.63
